Time;durP1;ratioP1;P1;durP2;ratioP2;P2;SDS_P1;SDS_P2;PMS_P1;PMS_P2;Temp;Humidity;BMP_temperature;BMP_pressure;BME280_temperature;BME280_humidity;BME280_pressure;Samples;Min_cycle;Max_cycle;Signal;HPM_P1;HPM_P2
2021/07/26 00:02:00;;;;;;;6.85;6.18;;;;;;;22.99;59.70;100942.91;4976423;28;20030;-72
2021/07/26 00:04:25;;;;;;;8.25;6.10;;;;;;;23.01;59.53;100935.84;4960480;28;20045;-72
2021/07/26 00:06:51;;;;;;;6.93;6.32;;;;;;;22.99;59.68;100935.88;4993819;28;20035;-71
2021/07/26 00:09:16;;;;;;;6.40;5.80;;;;;;;23.00;59.71;100936.75;4976623;28;20076;-72
2021/07/26 00:11:41;;;;;;;7.00;6.20;;;;;;;22.99;59.79;100933.25;4976488;28;20034;-72
2021/07/26 00:14:10;;;;;;;6.72;6.13;;;;;;;22.97;59.49;100931.56;4976452;28;20030;-74
2021/07/26 00:16:35;;;;;;;7.65;6.85;;;;;;;22.99;59.75;100937.66;4976608;28;20031;-74
2021/07/26 00:19:00;;;;;;;5.80;5.28;;;;;;;22.97;59.67;100929.78;4977838;28;20053;-72
2021/07/26 00:21:26;;;;;;;6.47;5.88;;;;;;;23.00;59.46;100931.47;4976400;28;20106;-72
2021/07/26 00:23:51;;;;;;;5.97;5.35;;;;;;;22.98;59.55;100928.03;4976513;28;20035;-72
2021/07/26 00:26:17;;;;;;;6.63;5.95;;;;;;;22.97;59.43;100921.88;4994520;28;20035;-72
2021/07/26 00:28:42;;;;;;;6.93;6.25;;;;;;;22.96;59.71;100924.56;4976986;28;20481;-72
2021/07/26 00:31:08;;;;;;;7.63;6.57;;;;;;;22.97;59.56;100929.78;4976696;28;20031;-72
2021/07/26 00:34:07;;;;;;;6.88;6.18;;;;;;;22.99;59.47;100929.72;4960682;28;20512;-71
2021/07/26 00:36:37;;;;;;;6.55;5.85;;;;;;;22.98;59.61;100920.94;4994098;28;20026;-74
2021/07/26 00:39:05;;;;;;;6.70;6.03;;;;;;;22.97;59.74;100921.88;4976908;28;20030;-72
2021/07/26 00:41:30;;;;;;;7.38;6.45;;;;;;;22.97;59.57;100915.75;4994121;28;20457;-72
2021/07/26 00:43:58;;;;;;;8.02;6.55;;;;;;;22.95;59.54;100921.03;4996876;28;20029;-72
2021/07/26 00:46:24;;;;;;;7.10;6.38;;;;;;;22.96;59.31;100920.16;4979540;28;20030;-72
2021/07/26 00:48:50;;;;;;;7.35;6.65;;;;;;;22.97;59.47;100913.97;4979854;28;20034;-72
2021/07/26 00:51:15;;;;;;;6.75;6.05;;;;;;;22.92;59.53;100900.00;4979900;28;20054;-74
2021/07/26 00:53:42;;;;;;;7.15;6.55;;;;;;;22.95;59.54;100907.84;4997283;28;20464;-72
2021/07/26 00:56:07;;;;;;;7.88;7.07;;;;;;;22.96;59.57;100912.22;4996994;28;20030;-72
2021/07/26 00:58:34;;;;;;;8.70;7.63;;;;;;;22.95;59.43;100909.63;4979247;28;20042;-72
2021/07/26 01:01:00;;;;;;;8.02;7.10;;;;;;;22.93;59.63;100900.88;4979851;28;20096;-72
2021/07/26 01:03:26;;;;;;;7.90;6.57;;;;;;;22.95;59.37;100905.22;4980244;28;20068;-72
2021/07/26 01:05:51;;;;;;;8.02;7.22;;;;;;;22.97;59.61;100910.47;4979794;28;20117;-72
2021/07/26 01:08:16;;;;;;;7.82;7.03;;;;;;;22.93;59.57;100899.09;4996686;28;20035;-72
2021/07/26 01:10:42;;;;;;;7.50;6.80;;;;;;;22.91;59.33;100894.75;4979373;28;20409;-72
2021/07/26 01:13:07;;;;;;;7.55;6.55;;;;;;;22.94;59.56;100889.44;4978981;28;20041;-72
2021/07/26 01:15:33;;;;;;;8.25;6.10;;;;;;;22.95;59.38;100897.31;4978842;28;20032;-72
2021/07/26 01:18:18;;;;;;;8.80;6.95;;;;;;;22.95;59.39;100896.44;4978940;28;20113;-72
2021/07/26 01:20:44;;;;;;;9.52;7.63;;;;;;;22.95;59.37;100893.81;4979186;28;20038;-72
2021/07/26 01:23:09;;;;;;;8.18;6.80;;;;;;;22.95;59.39;100902.59;4996203;28;20036;-72
2021/07/26 01:25:35;;;;;;;7.68;6.53;;;;;;;22.94;59.50;100894.69;4978912;28;20384;-72
2021/07/26 01:28:01;;;;;;;8.30;6.45;;;;;;;22.93;59.30;100891.19;4996187;28;20080;-72
2021/07/26 01:30:26;;;;;;;7.45;6.75;;;;;;;22.91;59.38;100882.44;4962647;28;20392;-72
2021/07/26 01:32:52;;;;;;;7.78;6.97;;;;;;;22.93;59.44;100896.47;4978696;28;20062;-72
2021/07/26 01:35:17;;;;;;;8.60;6.82;;;;;;;22.93;59.41;100885.91;4995961;28;20031;-72
2021/07/26 01:37:42;;;;;;;7.47;6.78;;;;;;;22.93;59.44;100888.56;4962349;28;20060;-72
2021/07/26 01:40:08;;;;;;;7.00;6.30;;;;;;;22.91;59.35;100892.13;4978551;28;20030;-72
2021/07/26 01:42:43;;;;;;;6.90;6.20;;;;;;;22.92;59.38;100892.09;4962417;28;20030;-72
2021/07/26 01:45:10;;;;;;;6.68;6.07;;;;;;;22.94;59.45;100900.84;4978507;28;20030;-72
2021/07/26 01:47:48;;;;;;;7.03;6.43;;;;;;;22.90;59.27;100893.03;4995915;28;20032;-72
2021/07/26 01:50:17;;;;;;;9.40;7.03;;;;;;;22.92;59.29;100902.66;4986278;28;20047;-72
2021/07/26 01:52:43;;;;;;;7.72;6.93;;;;;;;22.91;59.51;100907.94;4976293;28;20033;-71
2021/07/26 01:55:09;;;;;;;7.60;6.72;;;;;;;22.90;59.24;100898.31;4975385;28;20031;-73
2021/07/26 01:57:34;;;;;;;7.45;6.43;;;;;;;22.93;59.46;100911.44;4976196;28;20034;-74
2021/07/26 02:00:00;;;;;;;7.13;6.43;;;;;;;22.89;59.18;100901.84;4958746;28;20397;-74
2021/07/26 02:02:28;;;;;;;7.05;6.30;;;;;;;22.91;59.32;100900.91;4958835;28;20058;-73
2021/07/26 02:04:53;;;;;;;6.93;6.32;;;;;;;22.89;59.68;100901.84;4976023;28;20057;-72
2021/07/26 02:07:19;;;;;;;7.00;6.35;;;;;;;22.91;59.38;100898.28;4942547;28;20066;-73
2021/07/26 02:09:44;;;;;;;8.02;7.22;;;;;;;22.92;59.16;100904.41;4975867;28;20070;-73
2021/07/26 02:12:09;;;;;;;7.85;7.03;;;;;;;22.90;59.35;100906.22;4958458;28;20030;-74
2021/07/26 02:14:35;;;;;;;7.60;6.88;;;;;;;22.90;59.29;100895.66;4958609;28;20039;-73
2021/07/26 02:17:00;;;;;;;6.82;6.22;;;;;;;22.87;59.44;100898.34;4942563;28;20042;-71
2021/07/26 02:19:25;;;;;;;7.63;6.82;;;;;;;22.90;59.21;100891.25;4958550;28;20038;-73
2021/07/26 02:21:51;;;;;;;8.82;7.43;;;;;;;22.89;59.33;100892.16;4958372;28;20429;-71
2021/07/26 02:24:17;;;;;;;7.55;6.85;;;;;;;22.88;59.47;100894.81;4975598;28;20031;-73
2021/07/26 02:26:43;;;;;;;7.18;6.30;;;;;;;22.89;59.37;100886.88;4975682;28;20054;-74
2021/07/26 02:29:08;;;;;;;6.65;6.05;;;;;;;22.89;59.24;100894.78;4942306;28;20180;-72
2021/07/26 02:31:33;;;;;;;7.00;5.72;;;;;;;22.90;59.35;100888.63;4942677;28;20030;-71
2021/07/26 02:33:59;;;;;;;7.40;6.57;;;;;;;22.86;59.24;100879.03;4958124;28;20035;-74
2021/07/26 02:36:24;;;;;;;7.60;6.80;;;;;;;22.89;59.46;100884.25;4958489;28;20035;-72
2021/07/26 02:38:49;;;;;;;7.50;6.70;;;;;;;22.89;59.21;100889.53;4975561;28;20069;-72
2021/07/26 02:41:15;;;;;;;7.93;7.18;;;;;;;22.86;59.29;100883.44;4942162;28;20027;-72
2021/07/26 02:43:41;;;;;;;7.63;6.88;;;;;;;22.88;59.27;100895.69;4975334;28;20031;-72
2021/07/26 02:46:08;;;;;;;7.45;6.75;;;;;;;22.86;59.38;100886.06;4941862;28;20518;-72
2021/07/26 02:48:34;;;;;;;6.95;6.25;;;;;;;22.89;59.09;100897.44;4942307;28;20077;-72
2021/07/26 02:51:00;;;;;;;7.32;6.63;;;;;;;22.88;59.25;100895.69;4974899;28;20057;-72
2021/07/26 02:53:25;;;;;;;8.40;7.60;;;;;;;22.86;59.18;100892.22;4976044;28;20030;-72
2021/07/26 02:55:50;;;;;;;7.40;6.50;;;;;;;22.88;59.25;100894.81;4942612;28;20033;-72
2021/07/26 02:58:16;;;;;;;7.07;6.38;;;;;;;22.84;59.22;100891.41;4942611;28;20054;-72
2021/07/26 03:00:41;;;;;;;7.32;6.10;;;;;;;22.88;59.28;100897.47;4958362;28;20037;-72
2021/07/26 03:03:07;;;;;;;6.85;6.15;;;;;;;22.86;59.12;100896.63;4975555;28;20058;-72
2021/07/26 03:05:33;;;;;;;6.82;6.22;;;;;;;22.86;59.18;100896.63;4975031;28;20389;-72
2021/07/26 03:07:58;;;;;;;8.27;7.47;;;;;;;22.88;59.19;100900.09;4957651;28;20022;-72
2021/07/26 03:10:24;;;;;;;9.30;6.72;;;;;;;22.84;59.24;100893.19;4975457;28;20026;-72
2021/07/26 03:12:49;;;;;;;7.70;7.00;;;;;;;22.87;59.28;100907.13;4941745;28;20037;-72
2021/07/26 03:15:14;;;;;;;8.65;7.70;;;;;;;22.86;59.27;100904.53;4957656;28;20070;-72
2021/07/26 03:17:40;;;;;;;9.57;7.05;;;;;;;22.87;59.13;100904.50;4957632;28;20082;-71
2021/07/26 03:20:06;;;;;;;7.22;6.53;;;;;;;22.84;59.18;100895.81;4957550;28;20050;-71
2021/07/26 03:23:00;;;;;;;7.45;6.63;;;;;;;22.87;59.19;100903.63;4957496;28;20031;-72
2021/07/26 03:25:30;;;;;;;7.05;6.15;;;;;;;22.86;59.27;100909.81;4974795;28;20027;-72
2021/07/26 03:27:56;;;;;;;8.45;7.60;;;;;;;22.86;59.26;100905.41;4958926;28;20076;-72
2021/07/26 03:30:22;;;;;;;7.03;6.03;;;;;;;22.84;59.12;100915.16;4976178;28;20174;-72
2021/07/26 03:32:48;;;;;;;8.23;7.43;;;;;;;22.86;59.11;100915.94;4941772;28;20556;-72
2021/07/26 03:35:15;;;;;;;8.38;7.55;;;;;;;22.86;59.20;100912.44;4941672;28;20046;-72
2021/07/26 03:37:40;;;;;;;8.65;6.68;;;;;;;22.84;59.12;100909.88;4957759;28;20366;-72
2021/07/26 03:40:07;;;;;;;7.13;6.43;;;;;;;22.86;59.17;100923.84;4941565;28;20039;-72
2021/07/26 03:42:33;;;;;;;7.10;6.50;;;;;;;22.85;59.05;100921.28;4957297;28;20027;-72
2021/07/26 03:44:59;;;;;;;8.27;7.43;;;;;;;22.87;59.23;100917.69;4941389;28;20404;-72
2021/07/26 03:47:24;;;;;;;7.95;6.50;;;;;;;22.82;59.01;100906.41;4957391;28;20030;-72
2021/07/26 03:49:50;;;;;;;7.20;6.53;;;;;;;22.79;59.09;100906.44;4974625;28;20517;-72
2021/07/26 03:52:15;;;;;;;7.25;6.50;;;;;;;22.84;59.19;100917.78;4974370;28;20480;-72
2021/07/26 03:54:41;;;;;;;6.85;5.95;;;;;;;22.85;59.18;100919.47;4941157;28;20485;-72
2021/07/26 03:57:06;;;;;;;7.63;6.53;;;;;;;22.83;59.19;100917.81;4941280;28;20441;-72
2021/07/26 03:59:31;;;;;;;9.05;7.07;;;;;;;22.84;59.28;100920.41;4957113;28;20541;-72
2021/07/26 04:01:57;;;;;;;6.88;6.15;;;;;;;22.81;59.14;100920.47;4974454;28;20370;-72
2021/07/26 04:04:23;;;;;;;7.40;6.70;;;;;;;22.86;59.33;100929.13;4925446;28;20473;-72
2021/07/26 04:07:01;;;;;;;7.40;6.70;;;;;;;22.86;59.18;100921.22;4941098;28;20031;-72
2021/07/26 04:09:31;;;;;;;8.02;7.22;;;;;;;22.85;59.08;100932.66;4957047;28;20165;-73
2021/07/26 04:12:02;;;;;;;7.80;6.43;;;;;;;22.86;59.06;100926.50;4961286;28;20058;-72
2021/07/26 04:14:30;;;;;;;7.03;6.40;;;;;;;22.87;59.07;100935.28;4978422;28;20041;-72
2021/07/26 04:16:55;;;;;;;7.90;6.82;;;;;;;22.80;59.18;100924.88;4959260;28;20027;-72
2021/07/26 04:19:20;;;;;;;6.95;6.25;;;;;;;22.83;59.08;100934.50;4978665;28;20122;-72
2021/07/26 04:21:46;;;;;;;7.50;6.75;;;;;;;22.86;58.78;100934.41;4978202;28;20031;-72
2021/07/26 04:24:11;;;;;;;7.28;6.50;;;;;;;22.85;59.09;100934.47;4977811;28;20113;-72
2021/07/26 04:26:36;;;;;;;6.90;5.72;;;;;;;22.86;59.03;100931.78;4977683;28;20041;-72
2021/07/26 04:29:02;;;;;;;8.05;6.55;;;;;;;22.84;59.25;100933.59;4960620;28;20390;-71
2021/07/26 04:31:27;;;;;;;8.50;6.75;;;;;;;22.88;59.34;100937.88;4928465;28;20490;-73
2021/07/26 04:33:53;;;;;;;10.52;6.60;;;;;;;22.88;59.15;100937.88;4960495;28;20459;-71
2021/07/26 04:36:18;;;;;;;7.63;6.93;;;;;;;22.91;59.03;100935.19;4960398;28;20455;-72
2021/07/26 04:38:43;;;;;;;8.00;7.25;;;;;;;22.87;59.05;100930.88;4977672;28;20030;-72
2021/07/26 04:41:09;;;;;;;7.60;6.80;;;;;;;22.91;59.06;100935.19;4977541;28;20035;-72
2021/07/26 04:43:35;;;;;;;5.72;5.22;;;;;;;22.92;59.08;100934.28;4977402;28;20128;-72
2021/07/26 04:46:01;;;;;;;7.05;6.35;;;;;;;22.90;58.91;100924.66;4977378;28;20034;-72
2021/07/26 04:48:26;;;;;;;6.43;5.82;;;;;;;22.91;59.34;100935.19;4960169;28;20034;-72
2021/07/26 04:50:52;;;;;;;6.60;6.00;;;;;;;22.89;59.02;100926.44;4971384;28;20066;-71
2021/07/26 04:53:17;;;;;;;7.03;6.32;;;;;;;22.92;59.14;100936.94;4976173;28;20126;-72
2021/07/26 04:55:43;;;;;;;7.35;6.65;;;;;;;22.93;59.03;100929.88;4976018;28;20034;-72
2021/07/26 04:58:08;;;;;;;7.40;6.43;;;;;;;22.94;59.21;100929.00;4959798;28;20063;-72
2021/07/26 05:00:33;;;;;;;6.18;5.57;;;;;;;22.95;59.30;100928.97;4959963;28;20105;-71
2021/07/26 05:02:59;;;;;;;7.15;6.30;;;;;;;22.92;59.02;100918.47;4959864;28;20038;-72
2021/07/26 05:05:24;;;;;;;7.10;6.40;;;;;;;22.98;59.01;100910.41;4959821;28;20035;-72
2021/07/26 05:07:50;;;;;;;6.75;6.05;;;;;;;22.97;59.18;100911.34;4976128;28;20041;-72
2021/07/26 05:10:15;;;;;;;6.43;5.82;;;;;;;23.00;59.01;100919.16;4959617;28;20026;-72
2021/07/26 05:12:42;;;;;;;6.28;5.68;;;;;;;23.01;58.89;100918.25;4976864;28;20023;-71
2021/07/26 05:15:08;;;;;;;8.70;7.78;;;;;;;22.85;58.81;100922.13;4977372;28;20085;-72
2021/07/26 05:17:34;;;;;;;10.55;9.35;;;;;;;22.27;60.47;100915.41;4978078;28;20030;-73
2021/07/26 05:19:59;;;;;;;10.60;8.55;;;;;;;21.86;61.61;100928.41;4961098;28;20500;-72
2021/07/26 05:22:24;;;;;;;10.45;8.82;;;;;;;21.58;62.55;100921.00;4976754;28;20485;-72
2021/07/26 05:24:53;;;;;;;10.63;8.27;;;;;;;21.49;63.27;100920.28;4976722;28;20034;-72
2021/07/26 05:27:19;;;;;;;11.18;10.00;;;;;;;21.38;63.39;100928.34;4977052;28;20031;-72
2021/07/26 05:29:45;;;;;;;9.73;8.57;;;;;;;21.39;63.44;100923.06;4975043;28;20121;-73
2021/07/26 05:32:10;;;;;;;10.23;8.93;;;;;;;21.56;62.98;100919.28;4976615;28;20110;-72
2021/07/26 05:34:36;;;;;;;12.57;9.98;;;;;;;21.42;63.20;100922.16;4960405;28;20518;-72
2021/07/26 05:37:02;;;;;;;10.45;9.38;;;;;;;21.47;62.86;100924.69;4975747;28;20409;-71
2021/07/26 05:39:27;;;;;;;11.05;9.95;;;;;;;21.23;63.42;100926.81;4977118;28;20030;-72
2021/07/26 05:41:57;;;;;;;11.13;9.98;;;;;;;21.27;63.48;100919.75;4976510;28;20053;-72
2021/07/26 05:44:22;;;;;;;11.05;9.93;;;;;;;21.27;63.65;100925.03;4976521;28;20066;-72
2021/07/26 05:46:48;;;;;;;11.65;9.75;;;;;;;21.30;63.63;100914.44;4976586;28;20045;-71
2021/07/26 05:49:13;;;;;;;16.52;11.15;;;;;;;21.30;63.58;100917.94;4975342;28;20031;-71
2021/07/26 05:51:38;;;;;;;13.77;10.20;;;;;;;21.26;63.89;100923.28;4959397;28;20049;-72
2021/07/26 05:54:04;;;;;;;11.73;9.30;;;;;;;21.22;63.95;100918.94;4976966;28;20034;-73
2021/07/26 05:56:30;;;;;;;12.93;9.25;;;;;;;21.14;64.45;100916.41;4975839;28;20038;-72
2021/07/26 05:58:57;;;;;;;11.43;10.30;;;;;;;21.26;64.49;100910.13;4977113;28;20433;-72
2021/07/26 06:01:25;;;;;;;11.50;10.15;;;;;;;21.31;64.25;100911.78;4976724;28;20023;-72
2021/07/26 06:03:51;;;;;;;10.40;9.25;;;;;;;21.33;64.68;100910.00;4975220;28;20085;-72
2021/07/26 06:06:19;;;;;;;12.77;10.25;;;;;;;21.37;64.66;100913.47;4958675;28;20506;-72
2021/07/26 06:08:45;;;;;;;12.27;10.93;;;;;;;21.31;65.28;100917.03;4975076;28;20492;-72
2021/07/26 06:11:10;;;;;;;11.05;10.00;;;;;;;21.43;63.95;100909.84;4975087;28;20113;-72
2021/07/26 06:13:35;;;;;;;12.80;9.32;;;;;;;21.55;64.42;100910.50;4976279;28;20041;-72
2021/07/26 06:16:04;;;;;;;11.38;9.80;;;;;;;21.56;64.06;100916.63;4974916;28;20030;-73
2021/07/26 06:18:30;;;;;;;13.77;10.20;;;;;;;21.48;64.19;100908.03;4976194;28;20385;-72
2021/07/26 06:20:55;;;;;;;12.30;10.70;;;;;;;21.46;64.27;100912.44;4958664;28;20037;-73
2021/07/26 06:23:21;;;;;;;13.25;11.05;;;;;;;21.27;65.07;100917.13;4942695;28;20035;-73
2021/07/26 06:25:46;;;;;;;13.45;12.00;;;;;;;21.48;64.84;100918.53;4974805;28;20030;-73
2021/07/26 06:28:11;;;;;;;14.73;12.13;;;;;;;21.48;64.80;100923.81;4975770;28;20117;-73
2021/07/26 06:30:37;;;;;;;13.80;12.40;;;;;;;21.64;64.83;100920.03;4975710;28;20065;-73
2021/07/26 06:33:07;;;;;;;13.43;10.95;;;;;;;21.75;64.24;100911.06;4974238;28;20034;-72
2021/07/26 06:35:32;;;;;;;12.07;10.88;;;;;;;21.74;64.13;100909.31;4975692;28;20027;-72
2021/07/26 06:37:58;;;;;;;13.05;11.60;;;;;;;21.61;64.62;100915.69;4975871;28;20034;-73
2021/07/26 06:40:23;;;;;;;14.50;12.32;;;;;;;21.58;65.11;100913.09;4957725;28;20031;-72
2021/07/26 06:42:48;;;;;;;17.17;12.65;;;;;;;21.74;64.64;100926.88;4974235;28;20482;-72
2021/07/26 06:45:14;;;;;;;11.43;10.13;;;;;;;22.04;63.72;100922.88;4975598;28;20027;-72
2021/07/26 06:47:39;;;;;;;12.13;10.00;;;;;;;22.20;63.08;100926.94;4974481;28;20027;-72
2021/07/26 06:50:05;;;;;;;10.23;8.77;;;;;;;22.26;62.60;100924.19;4974101;28;20050;-72
2021/07/26 06:52:30;;;;;;;10.70;9.55;;;;;;;22.33;62.66;100923.16;4975065;28;20516;-72
2021/07/26 06:54:56;;;;;;;12.13;10.65;;;;;;;22.23;62.88;100926.88;4975190;28;20452;-72
2021/07/26 06:57:21;;;;;;;11.05;9.98;;;;;;;22.30;62.77;100930.28;4973850;28;20031;-72
2021/07/26 06:59:47;;;;;;;12.00;8.75;;;;;;;22.33;62.82;100931.06;4973984;28;20429;-72
2021/07/26 07:02:13;;;;;;;17.52;8.32;;;;;;;22.43;62.72;100940.56;4941723;28;20037;-72
2021/07/26 07:04:38;;;;;;;10.67;7.70;;;;;;;22.52;62.19;100939.50;4957755;28;20141;-72
2021/07/26 07:07:05;;;;;;;12.45;8.18;;;;;;;22.58;61.81;100939.38;4974063;28;20113;-72
2021/07/26 07:09:34;;;;;;;8.73;7.82;;;;;;;22.62;61.74;100942.81;4974136;28;20061;-72
2021/07/26 07:12:00;;;;;;;10.68;7.35;;;;;;;22.65;61.64;100946.25;4973724;28;20037;-72
2021/07/26 07:14:25;;;;;;;7.63;6.43;;;;;;;22.70;61.44;100956.72;4957570;28;20030;-72
2021/07/26 07:16:52;;;;;;;11.52;8.43;;;;;;;22.74;61.28;100959.22;4973909;28;20649;-72
2021/07/26 07:19:17;;;;;;;6.45;5.72;;;;;;;22.77;61.19;100947.78;4975410;28;20138;-72
2021/07/26 07:21:42;;;;;;;6.70;6.00;;;;;;;22.82;60.97;100947.72;4974861;28;20119;-72
2021/07/26 07:24:08;;;;;;;6.40;4.78;;;;;;;22.81;60.84;100946.84;4973431;28;20066;-72
2021/07/26 07:26:34;;;;;;;6.68;5.30;;;;;;;22.82;60.76;100953.00;4957386;28;20497;-72
2021/07/26 07:28:59;;;;;;;7.78;5.68;;;;;;;22.85;60.68;100953.75;4974811;28;20025;-72
2021/07/26 07:31:27;;;;;;;7.35;5.68;;;;;;;22.90;60.59;100953.69;4973726;28;20034;-72
2021/07/26 07:33:57;;;;;;;10.35;5.78;;;;;;;22.94;60.61;100958.88;4973918;28;20381;-72
2021/07/26 07:36:23;;;;;;;6.60;6.00;;;;;;;23.03;60.21;100953.38;4957423;28;20033;-72
2021/07/26 07:38:49;;;;;;;5.93;5.43;;;;;;;23.13;59.83;100949.63;4974809;28;20038;-72
2021/07/26 07:41:16;;;;;;;7.78;5.78;;;;;;;23.22;59.55;100942.44;4973720;28;21054;-72
2021/07/26 07:43:43;;;;;;;8.15;6.53;;;;;;;23.31;59.57;100947.47;4974632;28;20031;-72
2021/07/26 07:46:09;;;;;;;8.73;6.85;;;;;;;23.33;59.54;100949.19;4974436;28;20053;-72
2021/07/26 07:48:34;;;;;;;8.05;6.15;;;;;;;23.33;59.40;100950.97;4974626;28;20473;-72
2021/07/26 07:51:00;;;;;;;8.82;6.47;;;;;;;23.28;59.52;100955.47;4973590;28;20079;-71
2021/07/26 07:53:26;;;;;;;7.32;6.53;;;;;;;23.32;59.42;100957.13;4978937;28;20038;-72
2021/07/26 07:55:52;;;;;;;7.10;6.40;;;;;;;23.34;59.34;100950.94;4980127;28;20113;-73
2021/07/26 07:58:19;;;;;;;6.57;5.97;;;;;;;23.34;59.31;100944.78;4979387;28;20035;-72
2021/07/26 08:00:44;;;;;;;7.65;6.40;;;;;;;23.30;59.62;100956.31;4978817;28;20030;-72
2021/07/26 08:03:10;;;;;;;8.30;6.40;;;;;;;23.29;59.69;100954.56;4977356;28;20042;-72
2021/07/26 08:05:35;;;;;;;8.05;6.88;;;;;;;23.24;59.43;100948.53;4978909;28;20038;-72
2021/07/26 08:08:01;;;;;;;8.63;6.28;;;;;;;23.23;59.84;100946.81;4978588;28;20113;-72
2021/07/26 08:10:27;;;;;;;9.82;6.75;;;;;;;23.24;59.83;100959.09;4978189;28;20031;-73
2021/07/26 08:12:52;;;;;;;6.90;5.93;;;;;;;23.26;59.84;100947.56;4978327;28;20496;-72
2021/07/26 08:15:18;;;;;;;6.70;6.05;;;;;;;23.33;59.46;100956.22;4960755;28;20085;-72
2021/07/26 08:17:51;;;;;;;6.85;6.15;;;;;;;23.32;59.56;100959.78;4978072;28;20035;-72
2021/07/26 08:20:17;;;;;;;;;;;;;;;23.35;59.36;100959.72;4977450;28;20031;-72
2021/07/26 08:22:44;;;;;;;7.10;6.40;;;;;;;23.36;59.38;100964.09;4977878;28;20261;-72
2021/07/26 08:25:13;;;;;;;6.65;6.03;;;;;;;23.38;59.19;100963.13;4976808;28;20392;-72
2021/07/26 08:27:48;;;;;;;7.07;6.32;;;;;;;23.44;59.29;100960.34;4977785;28;20362;-72
2021/07/26 08:30:17;;;;;;;6.82;6.20;;;;;;;23.52;58.97;100965.47;4978129;28;20031;-72
2021/07/26 08:32:42;;;;;;;6.80;6.20;;;;;;;23.51;58.97;100966.38;4977621;28;20092;-72
2021/07/26 08:35:08;;;;;;;6.25;5.70;;;;;;;23.49;58.80;100962.91;4977679;28;20026;-71
2021/07/26 08:37:33;;;;;;;7.13;6.43;;;;;;;23.47;59.03;100956.78;4960381;28;20121;-72
2021/07/26 08:40:03;;;;;;;14.02;6.88;;;;;;;23.42;59.06;100954.25;4960763;28;20499;-71
2021/07/26 08:42:29;;;;;;;8.25;7.35;;;;;;;23.55;58.75;100952.22;4976387;28;20033;-71
2021/07/26 08:44:54;;;;;;;7.20;5.85;;;;;;;23.51;58.99;100953.19;4977513;28;20041;-72
2021/07/26 08:47:22;;;;;;;7.25;6.55;;;;;;;23.45;59.16;100950.66;4976208;28;20043;-71
2021/07/26 08:49:48;;;;;;;6.28;5.63;;;;;;;23.51;58.87;100955.81;4976378;28;20054;-72
2021/07/26 08:52:18;;;;;;;8.38;7.47;;;;;;;23.54;58.97;100954.88;4976172;28;20543;-71
2021/07/26 08:54:47;;;;;;;6.45;5.85;;;;;;;23.59;58.85;100948.59;4977277;28;20034;-71
2021/07/26 08:57:12;;;;;;;6.70;5.95;;;;;;;23.62;58.88;100943.25;4977409;28;20030;-72
2021/07/26 08:59:39;;;;;;;6.88;6.20;;;;;;;23.62;58.67;100942.38;4977401;28;20039;-71
2021/07/26 09:02:04;;;;;;;6.03;5.43;;;;;;;23.59;58.92;100950.38;4976236;28;20470;-71
2021/07/26 09:04:30;;;;;;;6.45;5.85;;;;;;;23.59;58.78;100951.25;4976906;28;20035;-72
2021/07/26 09:06:56;;;;;;;7.07;6.30;;;;;;;23.59;58.85;100953.00;4976257;28;20026;-71
2021/07/26 09:09:41;;;;;;;7.15;6.40;;;;;;;23.56;58.93;100953.94;4975929;28;20031;-72
2021/07/26 09:12:07;;;;;;;6.88;6.25;;;;;;;23.52;59.03;100952.28;4975670;28;20071;-71
2021/07/26 09:14:38;;;;;;;6.65;6.05;;;;;;;23.60;58.85;100945.06;4975786;28;20077;-72
2021/07/26 09:17:05;;;;;;;7.30;6.57;;;;;;;23.64;58.62;100946.69;4975623;28;20038;-71
2021/07/26 09:19:57;;;;;;;7.53;6.82;;;;;;;23.64;58.73;100944.06;4975628;28;20027;-71
2021/07/26 09:22:30;;;;;;;7.43;6.72;;;;;;;23.60;58.80;100952.97;4976893;28;20126;-71
2021/07/26 09:25:14;;;;;;;7.03;6.33;;;;;;;23.57;58.73;100953.03;4975716;28;20033;-71
2021/07/26 09:28:13;;;;;;;7.72;6.93;;;;;;;23.54;59.01;100953.13;4976873;28;20066;-72
2021/07/26 09:31:01;;;;;;;6.28;5.68;;;;;;;23.52;59.14;100952.28;4975059;28;20035;-72
2021/07/26 09:33:30;;;;;;;6.57;5.88;;;;;;;23.49;59.28;100957.63;4975997;28;20047;-72
2021/07/26 09:36:08;;;;;;;6.88;6.18;;;;;;;23.46;59.28;100960.31;4976554;28;20362;-72
2021/07/26 09:38:37;;;;;;;7.38;6.68;;;;;;;23.43;59.36;100950.69;4976634;28;20058;-72
2021/07/26 09:41:05;;;;;;;6.60;5.93;;;;;;;23.42;59.36;100954.25;4976475;28;20070;-71
2021/07/26 09:43:31;;;;;;;7.20;6.50;;;;;;;23.40;59.55;100952.53;4976332;28;20363;-71
2021/07/26 09:45:56;;;;;;;6.60;6.00;;;;;;;23.40;59.48;100952.53;4976379;28;20034;-71
2021/07/26 09:48:27;;;;;;;6.82;6.22;;;;;;;23.41;59.10;100955.16;4976298;28;20031;-72
2021/07/26 09:50:53;;;;;;;6.85;6.25;;;;;;;23.43;59.31;100955.09;4976383;28;20050;-72
2021/07/26 09:53:26;;;;;;;6.72;6.13;;;;;;;23.46;59.04;100952.41;4976852;28;20027;-72
2021/07/26 09:55:56;;;;;;;6.60;6.00;;;;;;;23.43;59.11;100953.34;4976187;28;20097;-71
2021/07/26 09:58:34;;;;;;;7.18;6.53;;;;;;;23.46;59.28;100955.03;4943207;28;20045;-72
2021/07/26 10:01:00;;;;;;;7.38;6.68;;;;;;;23.44;59.11;100939.25;4976779;28;20038;-71
2021/07/26 10:03:27;;;;;;;6.72;6.13;;;;;;;23.48;59.23;100942.69;4976303;28;20038;-71
2021/07/26 10:05:54;;;;;;;7.78;7.07;;;;;;;23.46;59.13;100945.34;4959034;28;20531;-72
2021/07/26 10:08:21;;;;;;;7.28;6.60;;;;;;;23.42;59.37;100945.47;4958864;28;20397;-72
2021/07/26 10:10:47;;;;;;;6.93;6.32;;;;;;;23.39;59.40;100943.75;4976192;28;20041;-71
2021/07/26 10:13:13;;;;;;;7.75;7.03;;;;;;;23.39;59.46;100942.88;4975951;28;20026;-71
2021/07/26 10:15:38;;;;;;;7.63;7.03;;;;;;;23.39;59.72;100956.94;4975391;28;20090;-71
2021/07/26 10:18:05;;;;;;;6.88;6.18;;;;;;;23.40;59.32;100957.81;4976299;28;20039;-71
2021/07/26 10:20:36;;;;;;;8.75;7.95;;;;;;;23.43;59.46;100960.38;4958647;28;20037;-71
2021/07/26 10:23:17;;;;;;;7.43;6.82;;;;;;;23.51;59.33;100956.69;4958348;28;20027;-71
2021/07/26 10:25:53;;;;;;;7.18;6.47;;;;;;;23.56;59.08;100948.66;4975690;28;20022;-72
2021/07/26 10:28:32;;;;;;;6.68;6.07;;;;;;;23.49;59.35;100952.34;4976008;28;20058;-72
2021/07/26 10:30:57;;;;;;;8.23;7.43;;;;;;;23.46;59.15;100948.00;4976018;28;20030;-71
2021/07/26 10:33:24;;;;;;;6.75;6.15;;;;;;;23.46;59.56;100953.28;4942350;28;20113;-71
2021/07/26 10:35:51;;;;;;;7.90;7.10;;;;;;;23.46;59.19;100958.56;4958479;28;20045;-71
2021/07/26 10:38:53;;;;;;;7.53;6.82;;;;;;;23.48;59.38;100955.88;4958300;28;20035;-72
2021/07/26 10:41:51;;;;;;;6.53;5.93;;;;;;;23.47;59.14;100955.00;4958034;28;20023;-71
2021/07/26 10:44:16;;;;;;;8.20;7.40;;;;;;;23.43;59.42;100949.84;4975550;28;20050;-72
2021/07/26 10:46:50;;;;;;;7.97;7.28;;;;;;;23.45;59.41;100961.22;4975299;28;20049;-72
2021/07/26 10:49:16;;;;;;;7.63;6.93;;;;;;;23.44;59.45;100960.34;4958033;28;20022;-72
2021/07/26 10:51:45;;;;;;;7.00;6.35;;;;;;;23.48;59.19;100962.03;4975060;28;20509;-72
2021/07/26 10:54:34;;;;;;;7.90;7.20;;;;;;;23.48;59.17;100966.44;4975019;28;20106;-72
2021/07/26 10:57:03;;;;;;;7.45;6.75;;;;;;;23.48;59.07;100961.16;4957796;28;20058;-71
2021/07/26 10:59:29;;;;;;;6.80;6.20;;;;;;;23.51;59.15;100958.47;4957721;28;20030;-72
2021/07/26 11:01:57;;;;;;;7.13;6.50;;;;;;;23.51;59.01;100954.03;4975099;28;20113;-72
2021/07/26 11:04:33;;;;;;;7.80;6.88;;;;;;;23.54;59.19;100962.81;4957690;28;20027;-72
2021/07/26 11:07:03;;;;;;;6.07;5.47;;;;;;;23.56;59.19;100963.63;4974875;28;20062;-72
2021/07/26 11:09:34;;;;;;;7.63;7.03;;;;;;;23.54;59.02;100963.66;4975151;28;20030;-72
2021/07/26 11:12:02;;;;;;;7.13;6.43;;;;;;;23.51;59.16;100956.69;4957622;28;20031;-72
2021/07/26 11:14:28;;;;;;;6.85;6.25;;;;;;;23.49;58.82;100953.22;4957510;28;20501;-72
2021/07/26 11:16:55;;;;;;;7.93;6.60;;;;;;;23.51;59.28;100966.38;4974991;28;20027;-72
2021/07/26 11:19:58;;;;;;;7.10;6.50;;;;;;;23.50;59.06;100948.75;4957390;28;20481;-72
2021/07/26 11:22:26;;;;;;;7.80;7.03;;;;;;;23.52;59.39;100958.41;4974807;28;20030;-72
2021/07/26 11:24:55;;;;;;;7.60;6.90;;;;;;;23.50;59.12;100960.22;4957434;28;20034;-72
2021/07/26 11:27:23;;;;;;;6.82;6.22;;;;;;;23.51;59.31;100959.31;4974601;28;20034;-72